จังหวัดภูเก็ต, ประเทศไทย

01:48 PM ICT วัน มกราคม 17, 2017 (GMT +0700)
Phuket International | | Change Station

Elev 33 ft 8.12 °N, 98.32 °E | Updated 18 minutes ago

Scattered Clouds
มีเมฆคลุมเป็นบางส่วน
84 ฟาเรนไฮน์
Feels Like 91 ฟาเรนไฮน์
N
4
ลม ความผันแปร ลม from ทางทิศตะวันตกและทิศตะวันตกเฉียงเหนือ

วันนี้
High -- | Low -- ฟาเรนไฮน์
--% Chance of Precip.
Yesterday
High -- | Low -- ฟาเรนไฮน์
Precip. -- นิ้ว
ความดัน 29.80 นิ้ว
ทัศนวิสัย 5.0 ไมล์
เมฆ Few 1800 ft
มีเมฆคลุมเป็นบางส่วน 10000 ft
ดัชนีความร้อน 91 ฟาเรนไฮน์
อุณหภูมิที่อากาศอาจจับตัวเป็นหยาดน้ำค้าง 73 ฟาเรนไฮน์
ความชื้น 70%
Rainfall 0.00 นิ้ว
Snow Depth Not available.
6:45 AM 6:28 PM
ข้างแรม, 75% visible
METAR VTSP 170630Z 30003KT 8000 FEW018 SCT100 29/23 Q1009 NOSIG
ความดัน 29.80 นิ้ว
ทัศนวิสัย 5.0 ไมล์
เมฆ Few 1800 ft
มีเมฆคลุมเป็นบางส่วน 10000 ft
ดัชนีความร้อน 91 ฟาเรนไฮน์
อุณหภูมิที่อากาศอาจจับตัวเป็นหยาดน้ำค้าง 73 ฟาเรนไฮน์
ความชื้น 70%
Rainfall 0.00 นิ้ว
Snow Depth Not available.
6:45 AM 6:28 PM
ข้างแรม, 75% visible
METAR VTSP 170630Z 30003KT 8000 FEW018 SCT100 29/23 Q1009 NOSIG

Get Your Daily Forecast Email!

Thanks for signing up!

Be on the lookout for a verification email in your inbox.

You'll start receiving the daily forecast at 8 AM.

×

10-Day Weather Forecast

No radar image for this location.
×

Almanac

ดาราศาสตร์

Jan. 17, 2017 Rise Set
Actual Time
Civil Twilight
Nautical Twilight
Astronomical Twilight
Moon
Length Of Visible Light
ความยาวของวัน
Tomorrow will be .
, % of the Moon is Illuminated

Today's Extremes

Country Highs Country Lows

Community

WunderPhotos

Upload Photos

1,962,540 photos uploaded!

WunderBlog® & News

Nearby

Air Quality

  Air Quality AQ Index Pollutant
Not available.

Snow Depth

Station Depth Elevation

Earthquake Activity

City Distance Mag. Time & Date
Minimum magnitude displayed is 2.5.

Coastal Water Temperatures

สถานที่ อุณหภูมิ

Stations

Nearby Weather Stations

Station Location Temp ลมหนาว อุณหภูมิที่อากาศอาจจับตัวเป็นหยาดน้ำค้าง ความชื้น ลม Precip. Elev ปรับปรุงล่าสุด Type